sensor_id;sensor_type;location;lat;lon;timestamp;temperature;humidity
56729;DHT22;42612;52.232;7.560;2023-03-14T00:01:55;15.70;57.80
56729;DHT22;42612;52.232;7.560;2023-03-14T00:04:21;15.70;57.80
56729;DHT22;42612;52.232;7.560;2023-03-14T00:06:46;15.70;57.80
56729;DHT22;42612;52.232;7.560;2023-03-14T00:09:13;15.70;57.90
56729;DHT22;42612;52.232;7.560;2023-03-14T00:11:39;15.70;57.90
56729;DHT22;42612;52.232;7.560;2023-03-14T00:14:04;15.70;57.90
56729;DHT22;42612;52.232;7.560;2023-03-14T00:16:30;15.70;58.00
56729;DHT22;42612;52.232;7.560;2023-03-14T00:18:58;15.60;57.90
56729;DHT22;42612;52.232;7.560;2023-03-14T00:21:24;15.60;58.00
56729;DHT22;42612;52.232;7.560;2023-03-14T00:23:50;15.60;57.90
56729;DHT22;42612;52.232;7.560;2023-03-14T00:26:18;15.60;58.00
56729;DHT22;42612;52.232;7.560;2023-03-14T00:28:46;15.60;58.00
56729;DHT22;42612;52.232;7.560;2023-03-14T00:31:14;15.50;58.00
56729;DHT22;42612;52.232;7.560;2023-03-14T00:33:41;15.50;57.90
56729;DHT22;42612;52.232;7.560;2023-03-14T00:36:10;15.50;57.90
56729;DHT22;42612;52.232;7.560;2023-03-14T00:38:41;15.50;58.00
56729;DHT22;42612;52.232;7.560;2023-03-14T00:41:12;15.40;58.00
56729;DHT22;42612;52.232;7.560;2023-03-14T00:43:39;15.40;58.00
56729;DHT22;42612;52.232;7.560;2023-03-14T00:46:05;15.40;58.00
56729;DHT22;42612;52.232;7.560;2023-03-14T00:48:31;15.40;58.10
56729;DHT22;42612;52.232;7.560;2023-03-14T00:50:57;15.30;58.00
56729;DHT22;42612;52.232;7.560;2023-03-14T00:53:23;15.30;57.90
56729;DHT22;42612;52.232;7.560;2023-03-14T00:55:49;15.30;57.90
56729;DHT22;42612;52.232;7.560;2023-03-14T00:58:16;15.30;57.90
56729;DHT22;42612;52.232;7.560;2023-03-14T01:00:43;15.30;58.00
56729;DHT22;42612;52.232;7.560;2023-03-14T01:03:11;15.20;57.90
56729;DHT22;42612;52.232;7.560;2023-03-14T01:05:38;15.20;58.10
56729;DHT22;42612;52.232;7.560;2023-03-14T01:08:05;15.20;58.00
56729;DHT22;42612;52.232;7.560;2023-03-14T01:10:33;15.10;58.00
56729;DHT22;42612;52.232;7.560;2023-03-14T01:12:59;15.10;58.10
56729;DHT22;42612;52.232;7.560;2023-03-14T01:15:25;15.10;58.10
56729;DHT22;42612;52.232;7.560;2023-03-14T01:17:51;15.10;58.10
56729;DHT22;42612;52.232;7.560;2023-03-14T01:20:17;15.10;58.20
56729;DHT22;42612;52.232;7.560;2023-03-14T01:22:44;15.10;58.20
56729;DHT22;42612;52.232;7.560;2023-03-14T01:25:13;15.10;58.20
56729;DHT22;42612;52.232;7.560;2023-03-14T01:27:40;15.00;58.10
56729;DHT22;42612;52.232;7.560;2023-03-14T01:30:07;15.00;58.20
56729;DHT22;42612;52.232;7.560;2023-03-14T01:32:34;15.00;58.20
56729;DHT22;42612;52.232;7.560;2023-03-14T01:35:00;15.00;58.20
56729;DHT22;42612;52.232;7.560;2023-03-14T01:37:25;15.00;58.20
56729;DHT22;42612;52.232;7.560;2023-03-14T01:39:51;15.00;58.20
56729;DHT22;42612;52.232;7.560;2023-03-14T01:42:17;15.00;58.30
56729;DHT22;42612;52.232;7.560;2023-03-14T01:47:15;15.00;58.40
56729;DHT22;42612;52.232;7.560;2023-03-14T01:49:41;14.90;58.40
56729;DHT22;42612;52.232;7.560;2023-03-14T01:52:15;14.90;58.30
56729;DHT22;42612;52.232;7.560;2023-03-14T01:54:44;14.90;58.40
56729;DHT22;42612;52.232;7.560;2023-03-14T02:00:09;14.90;58.50
56729;DHT22;42612;52.232;7.560;2023-03-14T02:02:40;14.90;58.70
56729;DHT22;42612;52.232;7.560;2023-03-14T02:05:12;14.90;58.60
56729;DHT22;42612;52.232;7.560;2023-03-14T02:07:53;14.90;58.60
56729;DHT22;42612;52.232;7.560;2023-03-14T02:10:28;14.90;58.90
56729;DHT22;42612;52.232;7.560;2023-03-14T02:12:56;14.90;58.80
56729;DHT22;42612;52.232;7.560;2023-03-14T02:15:25;14.90;58.80
56729;DHT22;42612;52.232;7.560;2023-03-14T02:17:51;14.90;59.10
56729;DHT22;42612;52.232;7.560;2023-03-14T02:20:44;14.80;59.00
56729;DHT22;42612;52.232;7.560;2023-03-14T02:23:16;14.80;59.80
56729;DHT22;42612;52.232;7.560;2023-03-14T02:26:03;14.80;59.40
56729;DHT22;42612;52.232;7.560;2023-03-14T02:28:33;14.70;59.60
56729;DHT22;42612;52.232;7.560;2023-03-14T02:30:58;14.70;59.50
56729;DHT22;42612;52.232;7.560;2023-03-14T02:33:24;14.70;59.60
56729;DHT22;42612;52.232;7.560;2023-03-14T02:35:58;14.60;59.50
56729;DHT22;42612;52.232;7.560;2023-03-14T02:38:33;14.60;60.00
56729;DHT22;42612;52.232;7.560;2023-03-14T02:41:02;14.60;59.60
56729;DHT22;42612;52.232;7.560;2023-03-14T02:43:28;14.60;59.70
56729;DHT22;42612;52.232;7.560;2023-03-14T02:45:54;14.60;59.60
56729;DHT22;42612;52.232;7.560;2023-03-14T02:48:31;14.50;59.60
56729;DHT22;42612;52.232;7.560;2023-03-14T02:51:00;14.50;59.90
56729;DHT22;42612;52.232;7.560;2023-03-14T02:53:37;14.50;59.50
56729;DHT22;42612;52.232;7.560;2023-03-14T02:56:04;14.50;59.80
56729;DHT22;42612;52.232;7.560;2023-03-14T02:58:31;14.50;59.50
56729;DHT22;42612;52.232;7.560;2023-03-14T03:00:56;14.50;59.40
56729;DHT22;42612;52.232;7.560;2023-03-14T03:03:22;14.50;59.40
56729;DHT22;42612;52.232;7.560;2023-03-14T03:05:53;14.50;59.50
56729;DHT22;42612;52.232;7.560;2023-03-14T03:08:21;14.50;59.40
56729;DHT22;42612;52.232;7.560;2023-03-14T03:10:48;14.50;59.40
56729;DHT22;42612;52.232;7.560;2023-03-14T03:13:15;14.40;59.30
56729;DHT22;42612;52.232;7.560;2023-03-14T03:15:41;14.50;59.40
56729;DHT22;42612;52.232;7.560;2023-03-14T03:18:08;14.50;59.30
56729;DHT22;42612;52.232;7.560;2023-03-14T03:20:34;14.40;59.20
56729;DHT22;42612;52.232;7.560;2023-03-14T03:23:00;14.40;59.20
56729;DHT22;42612;52.232;7.560;2023-03-14T03:25:26;14.40;59.20
56729;DHT22;42612;52.232;7.560;2023-03-14T03:27:52;14.40;59.20
56729;DHT22;42612;52.232;7.560;2023-03-14T03:30:18;14.40;59.20
56729;DHT22;42612;52.232;7.560;2023-03-14T03:32:44;14.40;59.30
56729;DHT22;42612;52.232;7.560;2023-03-14T03:35:10;14.40;59.30
56729;DHT22;42612;52.232;7.560;2023-03-14T03:37:36;14.30;59.30
56729;DHT22;42612;52.232;7.560;2023-03-14T03:40:02;14.40;59.30
56729;DHT22;42612;52.232;7.560;2023-03-14T03:42:31;14.30;59.20
56729;DHT22;42612;52.232;7.560;2023-03-14T03:44:59;14.30;59.30
56729;DHT22;42612;52.232;7.560;2023-03-14T03:47:25;14.30;59.30
56729;DHT22;42612;52.232;7.560;2023-03-14T03:49:50;14.30;59.40
56729;DHT22;42612;52.232;7.560;2023-03-14T03:52:16;14.20;59.40
56729;DHT22;42612;52.232;7.560;2023-03-14T03:54:42;14.20;59.50
56729;DHT22;42612;52.232;7.560;2023-03-14T03:57:08;14.20;59.70
56729;DHT22;42612;52.232;7.560;2023-03-14T03:59:34;14.20;59.70
56729;DHT22;42612;52.232;7.560;2023-03-14T04:01:59;14.20;60.00
56729;DHT22;42612;52.232;7.560;2023-03-14T04:04:25;14.10;60.00
56729;DHT22;42612;52.232;7.560;2023-03-14T04:06:51;14.00;60.00
56729;DHT22;42612;52.232;7.560;2023-03-14T04:09:16;14.00;60.00
56729;DHT22;42612;52.232;7.560;2023-03-14T04:11:42;14.00;60.00
56729;DHT22;42612;52.232;7.560;2023-03-14T04:14:08;14.00;60.00
56729;DHT22;42612;52.232;7.560;2023-03-14T04:16:34;13.90;60.00
56729;DHT22;42612;52.232;7.560;2023-03-14T04:19:01;13.90;60.00
56729;DHT22;42612;52.232;7.560;2023-03-14T04:21:27;13.90;60.00
56729;DHT22;42612;52.232;7.560;2023-03-14T04:23:53;13.80;59.90
56729;DHT22;42612;52.232;7.560;2023-03-14T04:26:19;13.80;60.00
56729;DHT22;42612;52.232;7.560;2023-03-14T04:28:45;13.80;60.00
56729;DHT22;42612;52.232;7.560;2023-03-14T04:31:16;13.80;60.00
56729;DHT22;42612;52.232;7.560;2023-03-14T04:33:44;13.70;60.20
56729;DHT22;42612;52.232;7.560;2023-03-14T04:36:10;13.80;60.10
56729;DHT22;42612;52.232;7.560;2023-03-14T04:38:36;13.70;60.20
56729;DHT22;42612;52.232;7.560;2023-03-14T04:41:02;13.70;60.40
56729;DHT22;42612;52.232;7.560;2023-03-14T04:43:29;13.70;60.30
56729;DHT22;42612;52.232;7.560;2023-03-14T04:45:56;13.70;60.40
56729;DHT22;42612;52.232;7.560;2023-03-14T04:48:23;13.70;60.20
56729;DHT22;42612;52.232;7.560;2023-03-14T04:50:49;13.70;60.20
56729;DHT22;42612;52.232;7.560;2023-03-14T04:53:16;13.70;60.40
56729;DHT22;42612;52.232;7.560;2023-03-14T04:55:47;13.60;61.00
56729;DHT22;42612;52.232;7.560;2023-03-14T04:58:14;13.70;60.50
56729;DHT22;42612;52.232;7.560;2023-03-14T05:00:39;13.60;60.10
56729;DHT22;42612;52.232;7.560;2023-03-14T05:03:05;13.60;60.10
56729;DHT22;42612;52.232;7.560;2023-03-14T05:05:31;13.60;60.20
56729;DHT22;42612;52.232;7.560;2023-03-14T05:07:56;13.60;60.30
56729;DHT22;42612;52.232;7.560;2023-03-14T05:10:22;13.60;60.30
56729;DHT22;42612;52.232;7.560;2023-03-14T05:12:48;13.60;60.40
56729;DHT22;42612;52.232;7.560;2023-03-14T05:15:13;13.50;60.20
56729;DHT22;42612;52.232;7.560;2023-03-14T05:17:39;13.60;60.50
56729;DHT22;42612;52.232;7.560;2023-03-14T05:20:05;13.50;60.20
56729;DHT22;42612;52.232;7.560;2023-03-14T05:22:34;13.60;60.30
56729;DHT22;42612;52.232;7.560;2023-03-14T05:25:00;13.50;60.30
56729;DHT22;42612;52.232;7.560;2023-03-14T05:27:26;13.50;60.20
56729;DHT22;42612;52.232;7.560;2023-03-14T05:29:51;13.50;60.30
56729;DHT22;42612;52.232;7.560;2023-03-14T05:32:17;13.60;60.40
56729;DHT22;42612;52.232;7.560;2023-03-14T05:34:43;13.50;60.30
56729;DHT22;42612;52.232;7.560;2023-03-14T05:37:08;13.50;60.30
56729;DHT22;42612;52.232;7.560;2023-03-14T05:39:34;13.50;60.40
56729;DHT22;42612;52.232;7.560;2023-03-14T05:42:00;13.50;60.40
56729;DHT22;42612;52.232;7.560;2023-03-14T05:44:25;13.50;60.40
56729;DHT22;42612;52.232;7.560;2023-03-14T05:46:51;13.50;60.40
56729;DHT22;42612;52.232;7.560;2023-03-14T05:49:17;13.50;60.50
56729;DHT22;42612;52.232;7.560;2023-03-14T05:51:42;13.50;60.50
56729;DHT22;42612;52.232;7.560;2023-03-14T05:54:08;13.50;60.40
56729;DHT22;42612;52.232;7.560;2023-03-14T05:56:34;13.50;60.40
56729;DHT22;42612;52.232;7.560;2023-03-14T05:58:59;13.50;60.40
56729;DHT22;42612;52.232;7.560;2023-03-14T06:01:27;13.60;60.40
56729;DHT22;42612;52.232;7.560;2023-03-14T06:03:53;13.60;60.60
56729;DHT22;42612;52.232;7.560;2023-03-14T06:06:19;13.60;60.20
56729;DHT22;42612;52.232;7.560;2023-03-14T06:08:44;13.60;60.20
56729;DHT22;42612;52.232;7.560;2023-03-14T06:11:10;13.60;60.20
56729;DHT22;42612;52.232;7.560;2023-03-14T06:13:36;13.60;60.30
56729;DHT22;42612;52.232;7.560;2023-03-14T06:16:02;13.60;60.20
56729;DHT22;42612;52.232;7.560;2023-03-14T06:18:27;13.60;60.20
56729;DHT22;42612;52.232;7.560;2023-03-14T06:20:54;13.60;60.20
56729;DHT22;42612;52.232;7.560;2023-03-14T06:23:21;13.60;60.20
56729;DHT22;42612;52.232;7.560;2023-03-14T06:25:47;13.60;60.20
56729;DHT22;42612;52.232;7.560;2023-03-14T06:28:13;13.60;60.20
56729;DHT22;42612;52.232;7.560;2023-03-14T06:30:39;13.60;60.30
56729;DHT22;42612;52.232;7.560;2023-03-14T06:33:06;13.60;60.20
56729;DHT22;42612;52.232;7.560;2023-03-14T06:35:31;13.60;60.20
56729;DHT22;42612;52.232;7.560;2023-03-14T06:37:57;13.60;60.20
56729;DHT22;42612;52.232;7.560;2023-03-14T06:40:23;13.60;60.20
56729;DHT22;42612;52.232;7.560;2023-03-14T06:42:49;13.70;60.20
56729;DHT22;42612;52.232;7.560;2023-03-14T06:45:15;13.70;60.40
56729;DHT22;42612;52.232;7.560;2023-03-14T06:47:40;13.70;60.30
56729;DHT22;42612;52.232;7.560;2023-03-14T06:50:07;13.60;60.30
56729;DHT22;42612;52.232;7.560;2023-03-14T06:52:33;13.70;60.40
56729;DHT22;42612;52.232;7.560;2023-03-14T06:54:59;13.70;60.40
56729;DHT22;42612;52.232;7.560;2023-03-14T06:57:24;13.70;60.40
56729;DHT22;42612;52.232;7.560;2023-03-14T06:59:50;13.70;60.40
56729;DHT22;42612;52.232;7.560;2023-03-14T07:02:16;13.70;60.40
56729;DHT22;42612;52.232;7.560;2023-03-14T07:04:42;13.70;60.50
56729;DHT22;42612;52.232;7.560;2023-03-14T07:07:08;13.70;60.50
56729;DHT22;42612;52.232;7.560;2023-03-14T07:09:34;13.70;60.60
56729;DHT22;42612;52.232;7.560;2023-03-14T07:12:00;13.70;60.70
56729;DHT22;42612;52.232;7.560;2023-03-14T07:14:26;13.60;61.00
56729;DHT22;42612;52.232;7.560;2023-03-14T07:16:51;13.60;61.00
56729;DHT22;42612;52.232;7.560;2023-03-14T07:19:17;13.70;61.10
56729;DHT22;42612;52.232;7.560;2023-03-14T07:21:43;13.70;61.30
56729;DHT22;42612;52.232;7.560;2023-03-14T07:24:09;13.60;61.10
56729;DHT22;42612;52.232;7.560;2023-03-14T07:26:35;13.60;61.60
56729;DHT22;42612;52.232;7.560;2023-03-14T07:29:22;13.60;61.70
56729;DHT22;42612;52.232;7.560;2023-03-14T07:31:48;13.60;62.00
56729;DHT22;42612;52.232;7.560;2023-03-14T07:34:14;13.50;61.90
56729;DHT22;42612;52.232;7.560;2023-03-14T07:36:40;13.50;62.30
56729;DHT22;42612;52.232;7.560;2023-03-14T07:39:05;13.50;62.10
56729;DHT22;42612;52.232;7.560;2023-03-14T07:41:32;13.50;62.40
56729;DHT22;42612;52.232;7.560;2023-03-14T07:43:58;13.50;62.70
56729;DHT22;42612;52.232;7.560;2023-03-14T07:46:24;13.50;62.70
56729;DHT22;42612;52.232;7.560;2023-03-14T07:48:50;13.50;62.70
56729;DHT22;42612;52.232;7.560;2023-03-14T07:51:15;13.50;62.70
56729;DHT22;42612;52.232;7.560;2023-03-14T07:53:41;13.50;62.80
56729;DHT22;42612;52.232;7.560;2023-03-14T07:56:08;13.50;62.90
56729;DHT22;42612;52.232;7.560;2023-03-14T07:58:34;13.50;63.40
56729;DHT22;42612;52.232;7.560;2023-03-14T08:01:00;13.50;63.00
56729;DHT22;42612;52.232;7.560;2023-03-14T08:03:26;13.50;63.00
56729;DHT22;42612;52.232;7.560;2023-03-14T08:05:51;13.50;63.10
56729;DHT22;42612;52.232;7.560;2023-03-14T08:08:17;13.50;63.30
56729;DHT22;42612;52.232;7.560;2023-03-14T08:10:43;13.50;63.00
56729;DHT22;42612;52.232;7.560;2023-03-14T08:13:10;13.50;63.10
56729;DHT22;42612;52.232;7.560;2023-03-14T08:15:36;13.60;63.20
56729;DHT22;42612;52.232;7.560;2023-03-14T08:18:03;13.60;63.10
56729;DHT22;42612;52.232;7.560;2023-03-14T08:20:30;13.60;63.40
56729;DHT22;42612;52.232;7.560;2023-03-14T08:23:00;13.60;63.10
56729;DHT22;42612;52.232;7.560;2023-03-14T08:25:27;13.60;63.50
56729;DHT22;42612;52.232;7.560;2023-03-14T08:27:53;13.60;63.10
56729;DHT22;42612;52.232;7.560;2023-03-14T08:30:21;13.70;63.20
56729;DHT22;42612;52.232;7.560;2023-03-14T08:32:47;13.70;63.10
56729;DHT22;42612;52.232;7.560;2023-03-14T08:35:13;13.70;63.40
56729;DHT22;42612;52.232;7.560;2023-03-14T08:37:39;13.70;63.30
56729;DHT22;42612;52.232;7.560;2023-03-14T08:40:05;13.70;63.40
56729;DHT22;42612;52.232;7.560;2023-03-14T08:42:35;13.70;63.60
56729;DHT22;42612;52.232;7.560;2023-03-14T08:45:02;13.70;63.90
56729;DHT22;42612;52.232;7.560;2023-03-14T08:47:29;13.70;63.60
56729;DHT22;42612;52.232;7.560;2023-03-14T08:49:55;13.70;63.70
56729;DHT22;42612;52.232;7.560;2023-03-14T08:52:20;13.70;63.70
56729;DHT22;42612;52.232;7.560;2023-03-14T08:54:46;13.70;63.80
56729;DHT22;42612;52.232;7.560;2023-03-14T08:57:12;13.70;63.80
56729;DHT22;42612;52.232;7.560;2023-03-14T08:59:38;13.70;63.90
56729;DHT22;42612;52.232;7.560;2023-03-14T09:02:04;13.70;63.90
56729;DHT22;42612;52.232;7.560;2023-03-14T09:04:30;13.70;63.90
56729;DHT22;42612;52.232;7.560;2023-03-14T09:06:57;13.70;63.90
56729;DHT22;42612;52.232;7.560;2023-03-14T09:09:24;13.70;63.90
56729;DHT22;42612;52.232;7.560;2023-03-14T09:11:52;13.70;64.10
56729;DHT22;42612;52.232;7.560;2023-03-14T09:14:17;13.70;64.00
56729;DHT22;42612;52.232;7.560;2023-03-14T09:16:43;13.60;64.00
56729;DHT22;42612;52.232;7.560;2023-03-14T09:19:09;13.60;63.60
56729;DHT22;42612;52.232;7.560;2023-03-14T09:21:34;13.60;62.60
56729;DHT22;42612;52.232;7.560;2023-03-14T09:24:00;13.50;62.10
56729;DHT22;42612;52.232;7.560;2023-03-14T09:26:26;13.40;62.00
56729;DHT22;42612;52.232;7.560;2023-03-14T09:28:52;13.30;61.90
56729;DHT22;42612;52.232;7.560;2023-03-14T09:31:18;13.20;61.90
56729;DHT22;42612;52.232;7.560;2023-03-14T09:33:43;13.20;62.00
56729;DHT22;42612;52.232;7.560;2023-03-14T09:36:10;13.10;62.10
56729;DHT22;42612;52.232;7.560;2023-03-14T09:38:36;13.00;62.10
56729;DHT22;42612;52.232;7.560;2023-03-14T09:41:21;13.00;62.20
56729;DHT22;42612;52.232;7.560;2023-03-14T09:43:59;12.90;62.40
56729;DHT22;42612;52.232;7.560;2023-03-14T09:46:31;12.90;62.40
56729;DHT22;42612;52.232;7.560;2023-03-14T09:48:58;12.80;61.70
56729;DHT22;42612;52.232;7.560;2023-03-14T09:51:24;12.70;61.00
56729;DHT22;42612;52.232;7.560;2023-03-14T09:53:51;12.50;60.70
56729;DHT22;42612;52.232;7.560;2023-03-14T09:56:23;12.30;60.50
56729;DHT22;42612;52.232;7.560;2023-03-14T09:58:56;12.10;60.50
56729;DHT22;42612;52.232;7.560;2023-03-14T10:01:28;11.90;60.50
56729;DHT22;42612;52.232;7.560;2023-03-14T10:03:58;11.70;60.70
56729;DHT22;42612;52.232;7.560;2023-03-14T10:06:27;11.50;60.90
56729;DHT22;42612;52.232;7.560;2023-03-14T10:08:55;11.30;61.00
56729;DHT22;42612;52.232;7.560;2023-03-14T10:11:22;11.10;61.10
56729;DHT22;42612;52.232;7.560;2023-03-14T10:14:01;11.00;61.00
56729;DHT22;42612;52.232;7.560;2023-03-14T10:16:31;10.80;61.00
56729;DHT22;42612;52.232;7.560;2023-03-14T10:19:10;10.60;61.10
56729;DHT22;42612;52.232;7.560;2023-03-14T10:21:50;10.50;61.20
56729;DHT22;42612;52.232;7.560;2023-03-14T10:24:30;10.30;61.00
56729;DHT22;42612;52.232;7.560;2023-03-14T10:27:06;10.10;61.20
56729;DHT22;42612;52.232;7.560;2023-03-14T10:30:04;10.00;61.10
56729;DHT22;42612;52.232;7.560;2023-03-14T10:32:35;9.80;61.30
56729;DHT22;42612;52.232;7.560;2023-03-14T10:37:57;9.50;61.40
56729;DHT22;42612;52.232;7.560;2023-03-14T10:40:28;9.30;61.30
56729;DHT22;42612;52.232;7.560;2023-03-14T10:42:58;9.20;61.70
56729;DHT22;42612;52.232;7.560;2023-03-14T10:45:31;9.10;61.90
56729;DHT22;42612;52.232;7.560;2023-03-14T10:48:29;9.00;62.10
56729;DHT22;42612;52.232;7.560;2023-03-14T10:51:06;8.90;62.40
56729;DHT22;42612;52.232;7.560;2023-03-14T10:53:43;8.90;62.60
56729;DHT22;42612;52.232;7.560;2023-03-14T10:56:20;8.90;62.50
56729;DHT22;42612;52.232;7.560;2023-03-14T10:58:57;8.90;62.60
56729;DHT22;42612;52.232;7.560;2023-03-14T11:01:32;8.90;63.20
56729;DHT22;42612;52.232;7.560;2023-03-14T11:06:58;8.90;62.80
56729;DHT22;42612;52.232;7.560;2023-03-14T11:15:31;8.90;62.90
56729;DHT22;42612;52.232;7.560;2023-03-14T11:18:12;8.90;63.10
56729;DHT22;42612;52.232;7.560;2023-03-14T11:21:08;8.80;63.20
56729;DHT22;42612;52.232;7.560;2023-03-14T11:29:33;9.00;63.40
56729;DHT22;42612;52.232;7.560;2023-03-14T11:35:34;9.20;63.60
56729;DHT22;42612;52.232;7.560;2023-03-14T11:41:13;9.40;63.70
56729;DHT22;42612;52.232;7.560;2023-03-14T11:43:41;9.50;63.50
56729;DHT22;42612;52.232;7.560;2023-03-14T11:46:15;9.60;63.40
56729;DHT22;42612;52.232;7.560;2023-03-14T11:51:29;9.80;63.20
56729;DHT22;42612;52.232;7.560;2023-03-14T11:54:34;9.90;63.10
56729;DHT22;42612;52.232;7.560;2023-03-14T11:57:17;10.00;62.80
56729;DHT22;42612;52.232;7.560;2023-03-14T11:59:58;10.10;62.70
56729;DHT22;42612;52.232;7.560;2023-03-14T12:10:49;10.20;61.60
56729;DHT22;42612;52.232;7.560;2023-03-14T12:13:18;10.20;61.10
56729;DHT22;42612;52.232;7.560;2023-03-14T12:15:56;10.00;61.10
56729;DHT22;42612;52.232;7.560;2023-03-14T12:18:30;10.00;61.20
56729;DHT22;42612;52.232;7.560;2023-03-14T12:21:00;9.80;61.10
56729;DHT22;42612;52.232;7.560;2023-03-14T12:23:40;9.70;61.30
56729;DHT22;42612;52.232;7.560;2023-03-14T12:28:38;9.50;61.80
56729;DHT22;42612;52.232;7.560;2023-03-14T12:42:07;9.40;61.70
56729;DHT22;42612;52.232;7.560;2023-03-14T12:49:45;9.50;62.10
56729;DHT22;42612;52.232;7.560;2023-03-14T12:52:22;9.60;62.00
56729;DHT22;42612;52.232;7.560;2023-03-14T12:55:03;9.60;61.50
56729;DHT22;42612;52.232;7.560;2023-03-14T13:00:24;9.80;59.30
56729;DHT22;42612;52.232;7.560;2023-03-14T13:05:55;9.90;59.20
56729;DHT22;42612;52.232;7.560;2023-03-14T13:08:41;9.90;58.40
56729;DHT22;42612;52.232;7.560;2023-03-14T13:11:14;9.90;58.40
56729;DHT22;42612;52.232;7.560;2023-03-14T13:13:49;10.00;59.40
56729;DHT22;42612;52.232;7.560;2023-03-14T13:16:19;10.00;59.60
56729;DHT22;42612;52.232;7.560;2023-03-14T13:18:49;10.20;59.60
56729;DHT22;42612;52.232;7.560;2023-03-14T13:21:21;10.30;59.20
56729;DHT22;42612;52.232;7.560;2023-03-14T13:24:00;10.40;58.60
56729;DHT22;42612;52.232;7.560;2023-03-14T13:26:55;10.50;57.40
56729;DHT22;42612;52.232;7.560;2023-03-14T13:29:29;10.60;56.60
56729;DHT22;42612;52.232;7.560;2023-03-14T13:32:00;10.60;55.50
56729;DHT22;42612;52.232;7.560;2023-03-14T13:34:29;10.60;56.20
56729;DHT22;42612;52.232;7.560;2023-03-14T13:36:56;10.60;55.40
56729;DHT22;42612;52.232;7.560;2023-03-14T13:39:24;10.50;55.50
56729;DHT22;42612;52.232;7.560;2023-03-14T13:41:54;10.50;55.30
56729;DHT22;42612;52.232;7.560;2023-03-14T13:44:27;10.50;55.50
56729;DHT22;42612;52.232;7.560;2023-03-14T13:47:00;10.50;55.20
56729;DHT22;42612;52.232;7.560;2023-03-14T13:49:28;10.60;54.90
56729;DHT22;42612;52.232;7.560;2023-03-14T13:51:57;10.60;54.40
56729;DHT22;42612;52.232;7.560;2023-03-14T13:54:25;10.60;54.40
56729;DHT22;42612;52.232;7.560;2023-03-14T13:57:05;10.60;54.00
56729;DHT22;42612;52.232;7.560;2023-03-14T13:59:33;10.60;53.30
56729;DHT22;42612;52.232;7.560;2023-03-14T14:02:03;10.60;54.50
56729;DHT22;42612;52.232;7.560;2023-03-14T14:04:33;10.70;54.00
56729;DHT22;42612;52.232;7.560;2023-03-14T14:07:06;10.70;54.20
56729;DHT22;42612;52.232;7.560;2023-03-14T14:09:41;10.70;54.40
56729;DHT22;42612;52.232;7.560;2023-03-14T14:12:16;10.80;53.20
56729;DHT22;42612;52.232;7.560;2023-03-14T14:15:09;10.90;53.00
56729;DHT22;42612;52.232;7.560;2023-03-14T14:17:43;11.00;52.40
56729;DHT22;42612;52.232;7.560;2023-03-14T14:20:37;11.10;53.00
56729;DHT22;42612;52.232;7.560;2023-03-14T14:23:09;11.30;54.20
56729;DHT22;42612;52.232;7.560;2023-03-14T14:25:36;11.40;52.90
56729;DHT22;42612;52.232;7.560;2023-03-14T14:31:04;11.40;50.40
56729;DHT22;42612;52.232;7.560;2023-03-14T14:33:42;11.30;50.80
56729;DHT22;42612;52.232;7.560;2023-03-14T14:36:32;11.20;50.30
56729;DHT22;42612;52.232;7.560;2023-03-14T14:39:09;11.20;51.00
56729;DHT22;42612;52.232;7.560;2023-03-14T14:41:42;11.10;51.30
56729;DHT22;42612;52.232;7.560;2023-03-14T14:44:12;11.10;50.90
56729;DHT22;42612;52.232;7.560;2023-03-14T14:46:38;11.10;50.50
56729;DHT22;42612;52.232;7.560;2023-03-14T14:49:09;11.10;50.90
56729;DHT22;42612;52.232;7.560;2023-03-14T14:52:13;11.10;50.20
56729;DHT22;42612;52.232;7.560;2023-03-14T14:54:59;11.10;48.50
56729;DHT22;42612;52.232;7.560;2023-03-14T14:57:37;11.20;50.50
56729;DHT22;42612;52.232;7.560;2023-03-14T15:00:09;11.20;48.90
56729;DHT22;42612;52.232;7.560;2023-03-14T15:02:46;11.10;49.60
56729;DHT22;42612;52.232;7.560;2023-03-14T15:05:22;11.10;49.30
56729;DHT22;42612;52.232;7.560;2023-03-14T15:07:49;11.10;48.50
56729;DHT22;42612;52.232;7.560;2023-03-14T15:10:17;11.10;49.60
56729;DHT22;42612;52.232;7.560;2023-03-14T15:12:44;11.00;48.80
56729;DHT22;42612;52.232;7.560;2023-03-14T15:15:11;10.90;49.00
56729;DHT22;42612;52.232;7.560;2023-03-14T15:17:37;10.90;48.90
56729;DHT22;42612;52.232;7.560;2023-03-14T15:20:05;10.80;48.90
56729;DHT22;42612;52.232;7.560;2023-03-14T15:22:32;10.80;49.10
56729;DHT22;42612;52.232;7.560;2023-03-14T15:24:58;10.80;49.20
56729;DHT22;42612;52.232;7.560;2023-03-14T15:27:23;10.80;49.50
56729;DHT22;42612;52.232;7.560;2023-03-14T15:29:50;10.80;49.40
56729;DHT22;42612;52.232;7.560;2023-03-14T15:32:16;10.80;49.40
56729;DHT22;42612;52.232;7.560;2023-03-14T15:34:43;10.80;49.20
56729;DHT22;42612;52.232;7.560;2023-03-14T15:37:14;10.80;49.60
56729;DHT22;42612;52.232;7.560;2023-03-14T15:39:44;10.90;49.30
56729;DHT22;42612;52.232;7.560;2023-03-14T15:42:11;11.00;49.60
56729;DHT22;42612;52.232;7.560;2023-03-14T15:44:37;11.10;49.80
56729;DHT22;42612;52.232;7.560;2023-03-14T15:47:03;11.20;49.60
56729;DHT22;42612;52.232;7.560;2023-03-14T15:49:29;11.30;49.20
56729;DHT22;42612;52.232;7.560;2023-03-14T15:51:54;11.40;48.40
56729;DHT22;42612;52.232;7.560;2023-03-14T15:54:20;11.40;48.00
56729;DHT22;42612;52.232;7.560;2023-03-14T15:56:46;11.50;47.80
56729;DHT22;42612;52.232;7.560;2023-03-14T15:59:12;11.50;47.50
56729;DHT22;42612;52.232;7.560;2023-03-14T16:01:37;11.50;47.10
56729;DHT22;42612;52.232;7.560;2023-03-14T16:04:03;11.60;47.10
56729;DHT22;42612;52.232;7.560;2023-03-14T16:06:29;11.60;46.70
56729;DHT22;42612;52.232;7.560;2023-03-14T16:08:56;11.60;46.50
56729;DHT22;42612;52.232;7.560;2023-03-14T16:11:22;11.60;46.20
56729;DHT22;42612;52.232;7.560;2023-03-14T16:13:47;11.50;46.10
56729;DHT22;42612;52.232;7.560;2023-03-14T16:16:13;11.50;46.80
56729;DHT22;42612;52.232;7.560;2023-03-14T16:18:39;11.40;45.80
56729;DHT22;42612;52.232;7.560;2023-03-14T16:21:09;11.40;45.90
56729;DHT22;42612;52.232;7.560;2023-03-14T16:23:37;11.30;45.70
56729;DHT22;42612;52.232;7.560;2023-03-14T16:26:08;11.30;46.00
56729;DHT22;42612;52.232;7.560;2023-03-14T16:28:36;11.20;45.70
56729;DHT22;42612;52.232;7.560;2023-03-14T16:31:13;11.10;45.90
56729;DHT22;42612;52.232;7.560;2023-03-14T16:33:42;11.00;44.90
56729;DHT22;42612;52.232;7.560;2023-03-14T16:36:11;10.80;46.00
56729;DHT22;42612;52.232;7.560;2023-03-14T16:38:39;10.80;45.80
56729;DHT22;42612;52.232;7.560;2023-03-14T16:41:17;10.80;45.90
56729;DHT22;42612;52.232;7.560;2023-03-14T16:43:45;10.70;45.10
56729;DHT22;42612;52.232;7.560;2023-03-14T16:46:14;10.70;46.10
56729;DHT22;42612;52.232;7.560;2023-03-14T16:48:44;10.70;45.90
56729;DHT22;42612;52.232;7.560;2023-03-14T16:51:10;10.60;46.20
56729;DHT22;42612;52.232;7.560;2023-03-14T16:53:36;10.60;46.30